Time;durP1;ratioP1;P1;durP2;ratioP2;P2;SDS_P1;SDS_P2;PMS_P1;PMS_P2;Temp;Humidity;BMP_temperature;BMP_pressure;BME280_temperature;BME280_humidity;BME280_pressure;Samples;Min_cycle;Max_cycle;Signal;HPM_P1;HPM_P2
2021/09/23 00:00:29;;;;;;;0.70;0.60;;;;;;;11.99;100.00;-21008.19;6276123;22;20701;-72
2021/09/23 00:03:09;;;;;;;0.70;0.60;;;;;;;11.89;100.00;-21005.44;6277478;22;20874;-71
2021/09/23 00:05:43;;;;;;;0.70;0.70;;;;;;;11.85;100.00;-21004.31;6250977;22;20414;-71
2021/09/23 00:08:16;;;;;;;0.70;0.60;;;;;;;11.75;100.00;-21001.56;6251828;22;20478;-72
2021/09/23 00:10:53;;;;;;;0.70;0.50;;;;;;;11.68;100.00;-20999.75;6278103;22;20740;-71
2021/09/23 00:13:28;;;;;;;0.70;0.60;;;;;;;11.72;100.00;-21000.72;6251014;22;20904;-71
2021/09/23 00:16:00;;;;;;;0.70;0.57;;;;;;;11.81;100.00;-21003.34;6277723;22;20428;-71
2021/09/23 00:18:56;;;;;;;0.70;0.60;;;;;;;11.89;100.00;-21005.44;6277204;22;20365;-72
2021/09/23 00:21:29;;;;;;;0.70;0.60;;;;;;;11.90;100.00;-21005.56;6250794;22;20925;-72
2021/09/23 00:24:08;;;;;;;0.60;0.50;;;;;;;11.90;100.00;-21005.69;6277948;22;20416;-71
2021/09/23 00:26:38;;;;;;;0.70;0.60;;;;;;;11.98;100.00;-21007.91;6251794;22;20371;-72
2021/09/23 00:29:18;;;;;;;0.70;0.50;;;;;;;12.05;100.00;-21009.84;6249436;22;20402;-71
2021/09/23 00:31:48;;;;;;;0.70;0.70;;;;;;;12.11;100.00;-21011.22;6251020;22;20702;-72
2021/09/23 00:34:25;;;;;;;0.87;0.87;;;;;;;12.12;100.00;-21011.50;6251274;22;20389;-72
2021/09/23 00:36:57;;;;;;;0.70;0.60;;;;;;;12.14;100.00;-21012.06;6225925;22;20993;-71
2021/09/23 00:39:28;;;;;;;0.70;0.50;;;;;;;12.16;100.00;-21012.75;6249883;22;20457;-72
2021/09/23 00:42:07;;;;;;;0.70;0.60;;;;;;;12.19;100.00;-21013.56;6226478;22;20466;-71
2021/09/23 00:44:52;;;;;;;0.70;0.60;;;;;;;12.18;100.00;-21013.16;6251030;22;20482;-71
2021/09/23 00:47:26;;;;;;;0.70;0.60;;;;;;;12.11;100.00;-20979.22;6225128;22;20927;-71
2021/09/23 00:50:06;;;;;;;0.70;0.60;;;;;;;12.12;100.00;-20856.47;6250896;22;20413;-71
2021/09/23 00:52:39;;;;;;;1.17;1.10;;;;;;;11.95;100.00;-20784.31;6250491;22;20443;-71
2021/09/23 00:55:12;;;;;;;0.70;0.60;;;;;;;11.91;100.00;-20680.19;6249413;22;20418;-71
2021/09/23 00:57:50;;;;;;;0.70;0.60;;;;;;;11.74;100.00;-20648.13;6225968;22;20417;-72
2021/09/23 01:00:33;;;;;;;0.70;0.60;;;;;;;11.73;100.00;-20602.69;6249557;22;20415;-71
2021/09/23 01:03:13;;;;;;;0.70;0.70;;;;;;;11.59;100.00;-20574.09;6250653;22;20449;-71
2021/09/23 01:05:55;;;;;;;0.70;0.60;;;;;;;11.34;100.00;-20615.13;6250142;22;20417;-71
2021/09/23 01:08:28;;;;;;;0.70;0.60;;;;;;;11.25;100.00;-20600.03;6250086;22;21031;-71
2021/09/23 01:10:59;;;;;;;0.70;0.60;;;;;;;11.07;100.00;-20605.47;6250384;22;20421;-72
2021/09/23 01:13:34;;;;;;;0.70;0.60;;;;;;;10.96;100.00;-20644.97;6225364;22;20410;-71
2021/09/23 01:16:12;;;;;;;0.70;0.60;;;;;;;10.84;100.00;-20707.13;6277013;22;20373;-71
2021/09/23 01:19:05;;;;;;;0.70;0.60;;;;;;;10.88;100.00;-20760.69;6249982;22;20425;-71
2021/09/23 01:21:43;;;;;;;0.70;0.60;;;;;;;10.94;100.00;-20737.28;6249885;22;20483;-71
2021/09/23 01:24:13;;;;;;;0.70;0.60;;;;;;;10.99;100.00;-20803.78;6250309;22;20462;-71
2021/09/23 01:26:48;;;;;;;0.70;0.60;;;;;;;10.88;100.00;-20876.09;6249917;22;20439;-71
2021/09/23 01:29:33;;;;;;;0.80;0.70;;;;;;;10.78;100.00;-20948.50;6249329;22;20950;-71
2021/09/23 01:32:12;;;;;;;0.70;0.60;;;;;;;10.78;100.00;-20975.28;6248919;22;20408;-71
2021/09/23 01:34:47;;;;;;;0.70;0.60;;;;;;;10.70;100.00;-20973.22;6249467;22;20433;-71
2021/09/23 01:37:29;;;;;;;0.80;0.80;;;;;;;10.60;100.00;-20970.44;6276893;22;20385;-70
2021/09/23 01:40:04;;;;;;;0.80;0.80;;;;;;;10.52;100.00;-20968.38;6249780;22;20418;-70
2021/09/23 01:42:44;;;;;;;0.70;0.70;;;;;;;10.56;100.00;-20969.47;6250013;22;20416;-71
2021/09/23 01:45:21;;;;;;;0.70;0.60;;;;;;;10.47;100.00;-20966.84;6249752;22;20886;-71
2021/09/23 01:47:54;;;;;;;0.70;0.60;;;;;;;10.68;100.00;-20972.66;6249023;22;20434;-71
2021/09/23 01:50:33;;;;;;;0.70;0.60;;;;;;;10.82;100.00;-20976.41;6249991;22;20474;-71
2021/09/23 01:53:09;;;;;;;0.70;0.60;;;;;;;10.84;100.00;-20976.94;6225850;22;20982;-71
2021/09/23 01:55:41;;;;;;;0.70;0.70;;;;;;;10.78;100.00;-20975.44;6249006;22;20499;-71
2021/09/23 01:58:18;;;;;;;0.70;0.60;;;;;;;10.63;100.00;-20971.41;6256930;22;20432;-71
2021/09/23 02:00:51;;;;;;;1.47;1.17;;;;;;;10.54;100.00;-20968.94;6251612;22;20493;-71
2021/09/23 02:03:28;;;;;;;0.60;0.50;;;;;;;10.49;100.00;-20967.41;6226771;22;20416;-71
2021/09/23 02:06:16;;;;;;;0.70;0.60;;;;;;;10.60;100.00;-20970.44;6250303;22;20418;-71
2021/09/23 02:08:55;;;;;;;0.70;0.60;;;;;;;10.68;100.00;-20972.53;6250434;22;20489;-71
2021/09/23 02:11:34;;;;;;;0.70;0.50;;;;;;;10.63;100.00;-20971.28;6251456;22;20414;-71
2021/09/23 02:14:09;;;;;;;0.70;0.60;;;;;;;10.49;100.00;-20967.41;6250463;22;20925;-71
2021/09/23 02:16:39;;;;;;;0.70;0.60;;;;;;;10.43;100.00;-20965.75;6225950;22;20415;-71
2021/09/23 02:19:30;;;;;;;0.70;0.60;;;;;;;10.33;100.00;-20963.13;6275722;22;20774;-71
2021/09/23 02:22:05;;;;;;;0.80;0.80;;;;;;;10.30;100.00;-20962.44;6250542;22;20422;-71
2021/09/23 02:24:45;;;;;;;1.23;1.13;;;;;;;10.40;100.00;-20965.19;6250572;22;20519;-71
2021/09/23 02:27:18;;;;;;;0.70;0.60;;;;;;;10.42;100.00;-20965.47;6224737;22;20444;-71
2021/09/23 02:29:49;;;;;;;1.80;0.97;;;;;;;10.71;100.00;-20973.34;6225521;22;20447;-70
2021/09/23 02:32:20;;;;;;;0.70;0.60;;;;;;;10.69;100.00;-20972.94;6250294;22;20430;-71
2021/09/23 02:34:52;;;;;;;0.70;0.60;;;;;;;10.71;100.00;-20973.50;6249813;22;20465;-71
2021/09/23 02:37:25;;;;;;;0.90;0.70;;;;;;;10.62;100.00;-20971.16;6250202;22;20509;-71
2021/09/23 02:40:05;;;;;;;0.70;0.57;;;;;;;10.62;100.00;-20971.00;6251001;22;20438;-72
2021/09/23 02:42:42;;;;;;;0.70;0.60;;;;;;;10.56;100.00;-20969.34;6224384;22;20401;-71
2021/09/23 02:45:15;;;;;;;0.70;0.60;;;;;;;10.54;100.00;-20968.78;6249711;22;20418;-70
2021/09/23 02:47:47;;;;;;;0.70;0.60;;;;;;;10.64;100.00;-20971.69;6250246;22;20738;-70
2021/09/23 02:50:17;;;;;;;0.70;0.60;;;;;;;10.71;100.00;-20973.34;6249574;22;20416;-71
2021/09/23 02:52:53;;;;;;;0.70;0.60;;;;;;;10.65;100.00;-20971.84;6250104;22;20545;-70
2021/09/23 02:55:30;;;;;;;0.70;0.60;;;;;;;10.74;100.00;-20974.19;6250606;22;20450;-71
2021/09/23 02:58:05;;;;;;;2.13;1.00;;;;;;;10.59;100.00;-20970.31;6249861;22;20442;-71
2021/09/23 03:00:37;;;;;;;0.70;0.60;;;;;;;10.35;100.00;-20963.69;6249285;22;20449;-70
2021/09/23 03:03:11;;;;;;;0.70;0.60;;;;;;;10.20;100.00;-20959.50;6249289;22;20423;-70
2021/09/23 03:05:44;;;;;;;0.70;0.60;;;;;;;10.07;100.00;-20956.19;6249719;22;20419;-71
2021/09/23 03:08:13;;;;;;;0.70;0.60;;;;;;;10.02;100.00;-20954.69;6249338;22;20872;-71
2021/09/23 03:10:46;;;;;;;0.80;0.70;;;;;;;9.91;100.00;-20951.78;6248642;22;20537;-70
2021/09/23 03:13:18;;;;;;;0.70;0.50;;;;;;;9.85;100.00;-20950.09;6249160;22;20419;-71
2021/09/23 03:15:53;;;;;;;0.70;0.60;;;;;;;9.80;100.00;-20948.72;6249409;22;20473;-70
2021/09/23 03:18:27;;;;;;;0.70;0.60;;;;;;;9.74;100.00;-20947.06;6223745;22;20405;-70
2021/09/23 03:20:57;;;;;;;0.70;0.60;;;;;;;9.74;100.00;-20947.19;6225380;22;20816;-71
2021/09/23 03:23:30;;;;;;;0.70;0.60;;;;;;;9.76;100.00;-20947.63;6275826;22;20419;-70
2021/09/23 03:26:13;;;;;;;0.70;0.60;;;;;;;9.96;100.00;-20953.00;6248842;22;20421;-71
2021/09/23 03:28:43;;;;;;;0.70;0.60;;;;;;;10.11;100.00;-20957.16;6226524;22;20461;-71
2021/09/23 03:31:14;;;;;;;0.70;0.60;;;;;;;10.06;100.00;-20955.78;6278162;22;20372;-71
2021/09/23 03:33:45;;;;;;;0.70;0.60;;;;;;;10.15;100.00;-20958.41;6278381;22;20445;-70
2021/09/23 03:36:15;;;;;;;0.70;0.60;;;;;;;10.13;100.00;-20957.84;6275996;22;20370;-70
2021/09/23 03:38:45;;;;;;;0.70;0.60;;;;;;;10.18;100.00;-20959.09;6248321;22;20430;-70
2021/09/23 03:41:17;;;;;;;0.70;0.60;;;;;;;10.09;100.00;-20956.75;6249516;22;20417;-70
2021/09/23 03:43:51;;;;;;;0.70;0.60;;;;;;;10.05;100.00;-20955.66;6224853;22;20422;-71
2021/09/23 03:46:23;;;;;;;0.70;0.60;;;;;;;10.00;100.00;-20954.25;6275990;22;20425;-70
2021/09/23 03:48:56;;;;;;;0.70;0.60;;;;;;;10.02;100.00;-20954.81;6224920;22;20919;-71
2021/09/23 03:51:26;;;;;;;0.70;0.70;;;;;;;10.07;100.00;-20956.19;6249109;22;20415;-70
2021/09/23 03:53:57;;;;;;;0.70;0.60;;;;;;;10.22;100.00;-20960.06;6247942;22;20809;-71
2021/09/23 03:56:31;;;;;;;0.70;0.60;;;;;;;10.15;100.00;-20958.41;6224133;22;20407;-72
2021/09/23 03:59:04;;;;;;;0.70;0.60;;;;;;;10.09;100.00;-20956.75;6248813;22;20421;-70
2021/09/23 04:01:38;;;;;;;0.70;0.60;;;;;;;9.95;100.00;-20952.75;6247521;22;20503;-71
2021/09/23 04:04:13;;;;;;;1.00;0.90;;;;;;;9.89;100.00;-20951.34;6224549;22;20442;-70
2021/09/23 04:06:47;;;;;;;0.70;0.60;;;;;;;9.86;100.00;-20950.38;6249784;22;20807;-70
2021/09/23 04:09:18;;;;;;;0.70;0.60;;;;;;;9.76;100.00;-20947.63;6277753;22;20811;-70
2021/09/23 04:11:57;;;;;;;0.70;0.60;;;;;;;9.75;100.00;-20947.34;6250521;22;20429;-71
2021/09/23 04:14:32;;;;;;;0.70;0.60;;;;;;;9.74;100.00;-20947.19;6226717;22;20497;-70
2021/09/23 04:17:03;;;;;;;0.70;0.60;;;;;;;9.63;100.00;-20944.28;6249856;22;20414;-70
2021/09/23 04:19:34;;;;;;;0.70;0.60;;;;;;;9.56;100.00;-20942.22;6250633;22;20407;-71
2021/09/23 04:22:06;;;;;;;0.70;0.60;;;;;;;9.49;100.00;-20940.41;6250991;22;20416;-70
2021/09/23 04:24:42;;;;;;;0.70;0.60;;;;;;;9.31;100.00;-20935.41;6250479;22;20406;-70
2021/09/23 04:27:16;;;;;;;0.70;0.70;;;;;;;9.35;100.00;-20936.69;6250825;22;20407;-71
2021/09/23 04:29:55;;;;;;;0.70;0.60;;;;;;;9.31;100.00;-20935.41;6250315;22;20504;-70
2021/09/23 04:32:25;;;;;;;0.70;0.60;;;;;;;9.29;100.00;-20935.00;6250315;22;20740;-70
2021/09/23 04:34:58;;;;;;;7.80;2.40;;;;;;;9.19;100.00;-20932.38;6250638;22;20454;-71
2021/09/23 04:37:29;;;;;;;0.70;0.60;;;;;;;9.10;100.00;-20929.88;6250615;22;20374;-70
2021/09/23 04:40:00;;;;;;;0.70;0.60;;;;;;;9.12;100.00;-20930.44;6277538;22;20391;-70
2021/09/23 04:42:35;;;;;;;0.70;0.60;;;;;;;9.09;100.00;-20929.59;6250420;22;20949;-70
2021/09/23 04:45:10;;;;;;;0.70;0.60;;;;;;;9.05;100.00;-20928.50;6250098;22;20876;-70
2021/09/23 04:47:47;;;;;;;0.70;0.60;;;;;;;9.01;100.00;-20927.38;6203270;22;20918;-69
2021/09/23 04:50:18;;;;;;;0.70;0.60;;;;;;;9.04;100.00;-20928.22;6250573;22;20465;-70
2021/09/23 04:52:51;;;;;;;0.70;0.60;;;;;;;8.94;100.00;-20925.44;6225952;22;20982;-70
2021/09/23 04:55:27;;;;;;;0.70;0.60;;;;;;;9.02;100.00;-20927.66;6225761;22;20416;-70
2021/09/23 04:58:00;;;;;;;0.70;0.60;;;;;;;9.04;100.00;-20928.22;6250298;22;20743;-70
2021/09/23 05:00:57;;;;;;;0.70;0.60;;;;;;;9.10;100.00;-20929.88;6276864;22;20366;-70
2021/09/23 05:03:28;;;;;;;0.70;0.60;;;;;;;9.15;100.00;-20931.28;6250151;22;20414;-71
2021/09/23 05:06:00;;;;;;;0.70;0.60;;;;;;;9.44;100.00;-20939.03;6225646;22;20419;-70
2021/09/23 05:08:30;;;;;;;1.70;1.60;;;;;;;9.51;100.00;-20940.81;6225097;22;20462;-70
2021/09/23 05:11:01;;;;;;;0.70;0.60;;;;;;;9.37;100.00;-20937.09;6249780;22;20823;-70
2021/09/23 05:13:32;;;;;;;0.70;0.70;;;;;;;9.37;100.00;-20937.09;6249661;22;20418;-70
2021/09/23 05:16:06;;;;;;;0.70;0.60;;;;;;;9.33;100.00;-20935.97;6249765;22;20430;-70
2021/09/23 05:18:37;;;;;;;1.07;0.97;;;;;;;9.36;100.00;-20936.94;6277306;22;20692;-71
2021/09/23 05:21:10;;;;;;;0.70;0.60;;;;;;;9.46;100.00;-20939.56;6277090;22;20378;-70
2021/09/23 05:23:43;;;;;;;0.70;0.60;;;;;;;9.51;100.00;-20940.97;6276875;22;20435;-71
2021/09/23 05:26:17;;;;;;;0.70;0.60;;;;;;;9.59;100.00;-20943.19;6276445;22;20445;-72
2021/09/23 05:28:53;;;;;;;0.70;0.57;;;;;;;9.51;100.00;-20940.97;6249743;22;20497;-70
2021/09/23 05:31:22;;;;;;;0.70;0.60;;;;;;;9.50;100.00;-20940.69;6250025;22;20464;-70
2021/09/23 05:33:51;;;;;;;0.70;0.60;;;;;;;9.47;100.00;-20939.84;6276943;22;20383;-70
2021/09/23 05:36:21;;;;;;;0.70;0.70;;;;;;;9.50;100.00;-20940.69;6250092;22;20564;-70
2021/09/23 05:38:51;;;;;;;0.70;0.60;;;;;;;9.49;100.00;-20940.41;6250597;22;20875;-70
2021/09/23 05:41:22;;;;;;;0.70;0.60;;;;;;;9.47;100.00;-20939.84;6250442;22;20742;-70
2021/09/23 05:43:53;;;;;;;0.70;0.50;;;;;;;9.44;100.00;-20939.03;6276554;22;20434;-71
2021/09/23 05:46:27;;;;;;;0.70;0.60;;;;;;;9.47;100.00;-20939.84;6249756;22;20420;-70
2021/09/23 05:48:57;;;;;;;0.70;0.60;;;;;;;9.47;100.00;-20939.72;6249985;22;20465;-71
2021/09/23 05:51:26;;;;;;;0.70;0.60;;;;;;;9.49;100.00;-20940.41;6250102;22;20414;-70
2021/09/23 05:53:55;;;;;;;0.70;0.60;;;;;;;9.49;100.00;-20940.41;6250317;22;20506;-70
2021/09/23 05:56:25;;;;;;;0.77;0.77;;;;;;;9.63;100.00;-20944.28;6249236;22;20494;-71
2021/09/23 05:59:00;;;;;;;0.70;0.60;;;;;;;9.70;100.00;-20945.94;6276101;22;20460;-68
2021/09/23 06:01:31;;;;;;;0.70;0.60;;;;;;;9.79;100.00;-20948.44;6249663;22;20418;-69
2021/09/23 06:04:03;;;;;;;0.70;0.60;;;;;;;9.78;100.00;-20948.16;6277421;22;20364;-69
2021/09/23 06:06:33;;;;;;;0.70;0.70;;;;;;;9.87;100.00;-20950.66;6225739;22;20402;-69
2021/09/23 06:09:05;;;;;;;0.70;0.60;;;;;;;9.85;100.00;-20950.25;6276902;22;20433;-69
2021/09/23 06:11:45;;;;;;;5.23;1.73;;;;;;;9.89;100.00;-20951.22;6249630;22;20425;-70
2021/09/23 06:14:22;;;;;;;0.70;0.60;;;;;;;9.93;100.00;-20952.31;6251006;22;20379;-70
2021/09/23 06:16:56;;;;;;;0.70;0.60;;;;;;;10.06;100.00;-20955.91;6249339;22;20425;-69
2021/09/23 06:19:29;;;;;;;0.70;0.60;;;;;;;10.09;100.00;-20956.75;6276511;22;20368;-70
2021/09/23 06:22:03;;;;;;;0.70;0.60;;;;;;;10.39;100.00;-20964.78;6250663;22;20481;-70
2021/09/23 06:24:36;;;;;;;0.70;0.60;;;;;;;10.70;100.00;-20973.22;6276921;22;20461;-69
2021/09/23 06:27:07;;;;;;;0.70;0.60;;;;;;;10.90;100.00;-20978.63;6249262;22;20450;-69
2021/09/23 06:29:43;;;;;;;0.87;0.77;;;;;;;11.19;100.00;-20986.50;6248252;22;20466;-70
2021/09/23 06:32:17;;;;;;;0.70;0.60;;;;;;;11.37;100.00;-20991.47;6276524;22;20367;-70
2021/09/23 06:34:53;;;;;;;0.70;0.60;;;;;;;11.54;100.00;-20996.03;6249208;22;20408;-71
2021/09/23 06:37:47;;;;;;;0.70;0.60;;;;;;;11.78;100.00;-21002.53;6228790;22;20432;-70
2021/09/23 06:40:22;;;;;;;0.70;0.60;;;;;;;11.94;100.00;-21006.66;6249940;22;20372;-71
2021/09/23 06:42:52;;;;;;;0.70;0.60;;;;;;;12.13;100.00;-21011.78;6249780;22;20451;-69
2021/09/23 06:45:25;;;;;;;0.70;0.60;;;;;;;12.20;100.00;-21013.72;6250390;22;20370;-71
2021/09/23 06:47:56;;;;;;;0.70;0.60;;;;;;;12.25;100.00;-21015.09;6276839;22;20382;-69
2021/09/23 06:50:25;;;;;;;0.70;0.60;;;;;;;12.40;100.00;-21019.22;6249154;22;20449;-71
2021/09/23 06:52:52;;;;;;;0.70;0.70;;;;;;;12.50;100.00;-21021.84;6276048;22;20408;-70
2021/09/23 06:55:22;;;;;;;0.70;0.60;;;;;;;12.61;100.00;-21024.75;6249085;22;20467;-71
2021/09/23 06:57:53;;;;;;;0.70;0.70;;;;;;;12.75;100.00;-21014.31;6250391;22;20693;-70
2021/09/23 07:00:46;;;;;;;0.70;0.60;;;;;;;12.91;100.00;-20628.94;6275872;22;20369;-70
2021/09/23 07:03:36;;;;;;;0.70;0.60;;;;;;;13.08;100.00;-20100.09;6260738;22;20893;-72
2021/09/23 07:06:18;;;;;;;0.70;0.60;;;;;;;13.27;100.00;-19468.47;6249736;22;20412;-71
2021/09/23 07:08:45;;;;;;;0.70;0.70;;;;;;;13.33;100.00;-18870.94;6248838;22;20749;-71
2021/09/23 07:11:16;;;;;;;0.80;0.70;;;;;;;13.39;100.00;-18273.22;6248308;22;20725;-71
2021/09/23 07:13:44;;;;;;;1.60;1.50;;;;;;;13.35;100.00;-17766.09;6248957;22;20392;-71
2021/09/23 07:16:13;;;;;;;0.70;0.60;;;;;;;13.36;100.00;-17076.31;6224308;22;20724;-71
2021/09/23 07:18:42;;;;;;;0.70;0.60;;;;;;;13.26;100.00;-16593.31;6224697;22;20434;-70
2021/09/23 07:21:09;;;;;;;0.70;0.60;;;;;;;13.37;100.00;-15892.56;6224038;22;20464;-70
2021/09/23 07:23:38;;;;;;;0.70;0.60;;;;;;;13.52;100.00;-15157.03;6249415;22;20432;-70
2021/09/23 07:26:05;;;;;;;0.70;0.53;;;;;;;13.71;100.00;-14330.69;6224377;22;20403;-71
2021/09/23 07:28:32;;;;;;;0.70;0.60;;;;;;;13.89;100.00;-13493.38;6223192;22;20430;-70
2021/09/23 07:31:02;;;;;;;0.70;0.60;;;;;;;14.07;100.00;-12698.28;6247657;22;20438;-70
2021/09/23 07:33:31;;;;;;;0.70;0.60;;;;;;;14.23;100.00;-11831.56;6249956;22;20393;-70
2021/09/23 07:35:58;;;;;;;0.70;0.60;;;;;;;14.40;100.00;-11143.78;6249514;22;20415;-71
2021/09/23 07:38:26;;;;;;;1.00;1.00;;;;;;;14.50;100.00;-10523.00;6249215;22;20521;-70
2021/09/23 07:40:54;;;;;;;2.37;2.20;;;;;;;14.70;100.00;-9862.28;6249205;22;20390;-71
2021/09/23 07:43:23;;;;;;;0.90;0.80;;;;;;;14.78;100.00;-9916.16;6225912;22;20406;-70
2021/09/23 07:45:53;;;;;;;0.70;0.60;;;;;;;14.94;100.00;-9894.88;6225845;22;20428;-70
2021/09/23 07:48:27;;;;;;;0.70;0.60;;;;;;;15.11;100.00;-10648.03;6250879;22;20416;-70
2021/09/23 07:51:09;;;;;;;0.70;0.70;;;;;;;15.38;100.00;-12506.06;6250549;22;20441;-70
2021/09/23 07:53:41;;;;;;;0.87;0.87;;;;;;;15.78;100.00;-15560.94;6203618;22;21113;-70
2021/09/23 07:56:14;;;;;;;0.70;0.63;;;;;;;15.92;100.00;-20480.72;6251101;22;20497;-70
2021/09/23 07:58:46;;;;;;;0.70;0.70;;;;;;;16.16;100.00;-21120.72;6226246;22;20440;-70
2021/09/23 08:01:21;;;;;;;0.80;0.70;;;;;;;16.19;100.00;-21121.41;6276905;22;20445;-70
2021/09/23 08:03:56;;;;;;;0.80;0.80;;;;;;;16.31;100.00;-21124.69;6251301;22;20404;-70
2021/09/23 08:06:33;;;;;;;0.80;0.80;;;;;;;16.60;100.00;-21132.38;6249988;22;20965;-71
2021/09/23 08:09:10;;;;;;;0.70;0.60;;;;;;;17.01;100.00;-21143.38;6228013;22;20438;-71
2021/09/23 08:11:52;;;;;;;0.80;0.63;;;;;;;17.63;100.00;-21160.09;6251047;22;20432;-72
2021/09/23 08:14:27;;;;;;;0.80;0.60;;;;;;;18.16;100.00;-21174.34;6251296;22;20445;-71
2021/09/23 08:17:18;;;;;;;0.80;0.70;;;;;;;18.83;100.00;-21192.44;6250221;22;20420;-72
2021/09/23 08:20:25;;;;;;;1.20;0.80;;;;;;;19.34;100.00;-21205.84;6209049;22;20866;-72
2021/09/23 08:22:58;;;;;;;0.70;0.70;;;;;;;19.70;100.00;-21215.69;6249996;22;20413;-71
2021/09/23 08:25:32;;;;;;;0.70;0.60;;;;;;;19.81;100.00;-21218.56;6225216;22;20441;-73
2021/09/23 08:28:04;;;;;;;0.80;0.80;;;;;;;20.52;100.00;-21237.56;6251668;22;20397;-72
2021/09/23 08:30:38;;;;;;;0.70;0.60;;;;;;;21.54;100.00;-21264.84;6226010;22;20457;-69
2021/09/23 08:33:09;;;;;;;0.70;0.60;;;;;;;21.21;100.00;-21256.09;6250602;22;20415;-71
2021/09/23 08:35:42;;;;;;;0.70;0.60;;;;;;;21.89;100.00;-21274.09;6250092;22;20418;-72
2021/09/23 08:38:19;;;;;;;0.70;0.60;;;;;;;22.49;100.00;-21290.19;6250263;22;20458;-73
2021/09/23 08:40:54;;;;;;;0.70;0.60;;;;;;;22.63;100.00;-21294.00;6226853;22;20502;-69
2021/09/23 08:43:26;;;;;;;0.80;0.70;;;;;;;21.40;100.00;-21261.03;6276740;22;20368;-70
2021/09/23 08:46:01;;;;;;;0.80;0.80;;;;;;;21.29;100.00;-21258.16;6250306;22;20418;-71
2021/09/23 08:48:35;;;;;;;0.70;0.60;;;;;;;21.33;100.00;-21259.09;6227249;22;20418;-71
2021/09/23 08:51:07;;;;;;;0.70;0.60;;;;;;;22.29;100.00;-21284.88;6250515;22;20438;-71
2021/09/23 08:53:40;;;;;;;0.70;0.60;;;;;;;21.82;100.00;-21272.34;6250360;22;20414;-71
2021/09/23 08:56:12;;;;;;;0.80;0.80;;;;;;;21.81;100.00;-21271.94;6226285;22;20406;-71
2021/09/23 08:58:45;;;;;;;0.70;0.60;;;;;;;21.69;100.00;-21268.94;6249102;22;20406;-71
2021/09/23 09:01:19;;;;;;;0.70;0.60;;;;;;;22.29;100.00;-21284.75;6225447;22;20452;-72
2021/09/23 09:04:03;;;;;;;0.70;0.60;;;;;;;22.32;100.00;-21285.56;6250042;22;20722;-70
2021/09/23 09:07:04;;;;;;;1.83;1.03;;;;;;;23.18;100.00;-21308.41;6235117;22;20717;-72
2021/09/23 09:10:01;;;;;;;0.70;0.60;;;;;;;23.35;100.00;-21313.03;6254574;22;20427;-72
2021/09/23 09:12:45;;;;;;;0.70;0.50;;;;;;;22.85;100.00;-21299.72;6250181;22;20430;-70
2021/09/23 09:15:17;;;;;;;0.70;0.50;;;;;;;22.77;100.00;-21297.53;6225144;22;20407;-72
2021/09/23 09:17:50;;;;;;;0.80;0.60;;;;;;;22.67;100.00;-21295.09;6250558;22;20406;-72
2021/09/23 09:20:22;;;;;;;0.70;0.60;;;;;;;24.10;100.00;-21333.16;6225851;22;20442;-72
2021/09/23 09:23:13;;;;;;;1.33;0.73;;;;;;;24.97;100.00;-21356.25;6250283;22;20442;-70
2021/09/23 09:25:47;;;;;;;0.70;0.50;;;;;;;24.95;100.00;-21355.69;6225321;22;20411;-70
2021/09/23 09:28:24;;;;;;;0.77;0.60;;;;;;;24.62;100.00;-21346.88;6250249;22;20433;-69
2021/09/23 09:30:59;;;;;;;0.80;0.70;;;;;;;24.58;100.00;-21345.78;6225054;22;20454;-70
2021/09/23 09:33:45;;;;;;;0.90;0.77;;;;;;;24.82;100.00;-21352.16;6248939;22;20897;-72
2021/09/23 09:36:33;;;;;;;0.70;0.50;;;;;;;24.81;100.00;-21351.91;6250114;22;20515;-70
2021/09/23 09:39:08;;;;;;;0.70;0.50;;;;;;;23.76;100.00;-21324.06;6224806;22;20435;-70
2021/09/23 09:41:50;;;;;;;0.80;0.70;;;;;;;23.48;100.00;-21316.56;6249646;22;20856;-72
2021/09/23 09:44:23;;;;;;;0.70;0.50;;;;;;;24.20;100.00;-21335.59;6250048;22;20897;-73
2021/09/23 09:46:58;;;;;;;0.93;0.83;;;;;;;24.24;100.00;-21336.69;6225321;22;20415;-72
2021/09/23 09:49:31;;;;;;;0.73;0.70;;;;;;;24.56;100.00;-21345.38;6225196;22;20419;-69
2021/09/23 09:52:06;;;;;;;0.90;0.70;;;;;;;25.10;100.00;-21359.50;6224494;22;20435;-70
2021/09/23 09:54:39;;;;;;;0.70;0.53;;;;;;;25.28;100.00;-21364.50;6225570;22;20421;-73
2021/09/23 09:57:13;;;;;;;0.70;0.60;;;;;;;24.92;100.00;-21354.75;6249216;22;20407;-73
2021/09/23 09:59:42;;;;;;;0.70;0.67;;;;;;;24.10;100.00;-21333.03;6225488;22;20411;-72
2021/09/23 10:02:14;;;;;;;0.70;0.53;;;;;;;24.54;100.00;-21344.84;6224351;22;20413;-72
2021/09/23 10:04:43;;;;;;;0.70;0.60;;;;;;;24.23;100.00;-21336.56;6224743;22;20413;-70
2021/09/23 10:07:12;;;;;;;0.70;0.60;;;;;;;23.69;100.00;-21322.03;6224619;22;20399;-71
2021/09/23 10:09:46;;;;;;;0.70;0.60;;;;;;;23.71;100.00;-21322.56;6224493;22;20395;-72
2021/09/23 10:12:23;;;;;;;0.70;0.50;;;;;;;25.08;100.00;-21358.94;6249688;22;20760;-75
2021/09/23 10:14:59;;;;;;;0.70;0.53;;;;;;;24.27;100.00;-21337.50;6250246;22;20505;-73
2021/09/23 10:17:39;;;;;;;0.70;0.50;;;;;;;24.70;100.00;-21348.91;6225367;22;20442;-75
2021/09/23 10:20:11;;;;;;;0.70;0.60;;;;;;;24.41;100.00;-21341.16;6225148;22;20410;-73
2021/09/23 10:22:44;;;;;;;0.80;0.60;;;;;;;24.24;100.00;-21336.81;6249283;22;20426;-72
2021/09/23 10:25:17;;;;;;;0.70;0.60;;;;;;;25.01;100.00;-21357.31;6249803;22;20492;-74
2021/09/23 10:28:01;;;;;;;0.80;0.60;;;;;;;25.44;100.00;-21368.72;6249827;22;20407;-74
2021/09/23 10:30:44;;;;;;;0.80;0.70;;;;;;;24.18;100.00;-21335.06;6227647;22;20435;-73
2021/09/23 10:33:23;;;;;;;0.70;0.50;;;;;;;23.86;100.00;-21326.63;6249101;22;20407;-72
2021/09/23 10:35:55;;;;;;;0.70;0.60;;;;;;;24.22;100.00;-21336.16;6251155;22;20457;-72
2021/09/23 10:38:28;;;;;;;0.70;0.60;;;;;;;24.78;100.00;-21351.22;6225608;22;20414;-74
2021/09/23 10:40:58;;;;;;;0.70;0.60;;;;;;;24.65;100.00;-21347.56;6249282;22;20406;-73
2021/09/23 10:43:30;;;;;;;0.80;0.70;;;;;;;25.19;100.00;-21361.94;6249208;22;20407;-73
2021/09/23 10:46:00;;;;;;;0.70;0.50;;;;;;;24.71;100.00;-21349.19;6250064;22;20407;-72
2021/09/23 10:48:40;;;;;;;0.70;0.50;;;;;;;25.14;100.00;-21360.56;6226674;22;20411;-73
2021/09/23 10:51:13;;;;;;;0.80;0.80;;;;;;;25.36;100.00;-21366.41;6225133;22;20476;-72
2021/09/23 10:53:48;;;;;;;1.53;0.80;;;;;;;25.95;100.00;-21382.25;6249704;22;20426;-73
2021/09/23 10:56:20;;;;;;;0.70;0.50;;;;;;;27.00;100.00;-21409.88;6249961;22;20422;-73
2021/09/23 10:58:53;;;;;;;0.70;0.50;;;;;;;26.21;100.00;-21389.03;6224546;22;20417;-74
2021/09/23 11:01:24;;;;;;;0.80;0.70;;;;;;;25.63;100.00;-21373.72;6223641;22;20592;-72
2021/09/23 11:03:56;;;;;;;0.70;0.60;;;;;;;25.76;100.00;-21377.25;6276601;22;20372;-73
2021/09/23 11:06:32;;;;;;;0.70;0.50;;;;;;;25.66;100.00;-21374.53;6249680;22;20776;-74
2021/09/23 11:09:17;;;;;;;0.80;0.67;;;;;;;25.53;100.00;-21371.16;6224318;22;20814;-71
2021/09/23 11:11:51;;;;;;;0.77;0.73;;;;;;;25.89;100.00;-21380.63;6225298;22;20442;-72
2021/09/23 11:14:21;;;;;;;0.70;0.60;;;;;;;26.57;100.00;-21398.50;6224451;22;20466;-71
2021/09/23 11:16:50;;;;;;;0.93;0.83;;;;;;;26.36;100.00;-21392.97;6251536;22;20409;-72
2021/09/23 11:19:19;;;;;;;0.80;0.63;;;;;;;27.24;100.00;-21416.38;6226152;22;20877;-72
2021/09/23 11:21:48;;;;;;;0.97;0.90;;;;;;;27.65;100.00;-21427.19;6226595;22;20395;-72
2021/09/23 11:24:16;;;;;;;1.47;1.00;;;;;;;27.76;100.00;-21430.16;6251503;22;20429;-72
2021/09/23 11:26:43;;;;;;;0.80;0.80;;;;;;;28.15;100.00;-21440.41;6251232;22;20725;-72
2021/09/23 11:29:13;;;;;;;0.73;0.60;;;;;;;28.58;100.00;-21451.88;6251282;22;20406;-71
2021/09/23 11:31:49;;;;;;;0.70;0.60;;;;;;;28.26;100.00;-21443.38;6250938;22;20442;-72
2021/09/23 11:34:30;;;;;;;0.70;0.60;;;;;;;27.35;100.00;-21419.34;6250947;22;20386;-73
2021/09/23 11:36:59;;;;;;;0.70;0.60;;;;;;;28.22;100.00;-21442.31;6226744;22;20403;-72
2021/09/23 11:39:26;;;;;;;0.70;0.50;;;;;;;26.67;100.00;-21401.34;6225700;22;20429;-72
2021/09/23 11:42:09;;;;;;;0.70;0.60;;;;;;;26.27;100.00;-21390.78;6226433;22;20407;-73
2021/09/23 11:44:36;;;;;;;2.90;0.70;;;;;;;26.72;100.00;-21402.56;6250999;22;20732;-73
2021/09/23 11:47:23;;;;;;;0.80;0.70;;;;;;;25.30;100.00;-21364.91;6250281;22;20410;-73
2021/09/23 11:49:53;;;;;;;0.70;0.60;;;;;;;25.19;100.00;-21362.06;6251382;22;20414;-71
2021/09/23 11:52:30;;;;;;;0.80;0.60;;;;;;;24.95;100.00;-21355.69;6226432;22;20488;-72